sensor_id;sensor_type;location;lat;lon;timestamp;P1;durP1;ratioP1;P2;durP2;ratioP2
41323;SDS011;27073;51.128;4.220;2023-04-29T00:01:25;47.58;;;34.40;;
41323;SDS011;27073;51.128;4.220;2023-04-29T00:03:50;46.40;;;32.95;;
41323;SDS011;27073;51.128;4.220;2023-04-29T00:06:16;50.30;;;34.88;;
41323;SDS011;27073;51.128;4.220;2023-04-29T00:08:42;57.72;;;35.88;;
41323;SDS011;27073;51.128;4.220;2023-04-29T00:11:08;50.13;;;35.97;;
41323;SDS011;27073;51.128;4.220;2023-04-29T00:13:35;48.80;;;34.05;;
41323;SDS011;27073;51.128;4.220;2023-04-29T00:16:01;53.58;;;35.72;;
41323;SDS011;27073;51.128;4.220;2023-04-29T00:18:27;56.47;;;36.38;;
41323;SDS011;27073;51.128;4.220;2023-04-29T00:20:52;56.67;;;35.83;;
41323;SDS011;27073;51.128;4.220;2023-04-29T00:23:18;49.28;;;34.22;;
41323;SDS011;27073;51.128;4.220;2023-04-29T00:25:44;55.88;;;35.95;;
41323;SDS011;27073;51.128;4.220;2023-04-29T00:28:09;57.47;;;36.25;;
41323;SDS011;27073;51.128;4.220;2023-04-29T00:30:35;56.65;;;37.50;;
41323;SDS011;27073;51.128;4.220;2023-04-29T00:33:01;56.85;;;37.95;;
41323;SDS011;27073;51.128;4.220;2023-04-29T00:35:27;58.03;;;37.35;;
41323;SDS011;27073;51.128;4.220;2023-04-29T00:37:53;56.63;;;38.13;;
41323;SDS011;27073;51.128;4.220;2023-04-29T00:40:19;59.88;;;38.95;;
41323;SDS011;27073;51.128;4.220;2023-04-29T00:42:45;57.90;;;38.33;;
41323;SDS011;27073;51.128;4.220;2023-04-29T00:45:11;56.70;;;38.90;;
41323;SDS011;27073;51.128;4.220;2023-04-29T00:47:37;53.75;;;37.92;;
41323;SDS011;27073;51.128;4.220;2023-04-29T00:50:03;54.17;;;38.40;;
41323;SDS011;27073;51.128;4.220;2023-04-29T00:52:30;55.22;;;40.10;;
41323;SDS011;27073;51.128;4.220;2023-04-29T00:54:56;53.63;;;38.83;;
41323;SDS011;27073;51.128;4.220;2023-04-29T00:57:24;54.47;;;37.55;;
41323;SDS011;27073;51.128;4.220;2023-04-29T00:59:53;54.53;;;35.33;;
41323;SDS011;27073;51.128;4.220;2023-04-29T01:02:23;47.10;;;33.85;;
41323;SDS011;27073;51.128;4.220;2023-04-29T01:04:50;41.30;;;31.17;;
41323;SDS011;27073;51.128;4.220;2023-04-29T01:07:17;44.15;;;31.75;;
41323;SDS011;27073;51.128;4.220;2023-04-29T01:15:21;33.08;;;27.13;;
41323;SDS011;27073;51.128;4.220;2023-04-29T01:17:54;38.28;;;29.02;;
41323;SDS011;27073;51.128;4.220;2023-04-29T01:20:22;40.35;;;29.70;;
41323;SDS011;27073;51.128;4.220;2023-04-29T01:22:50;36.53;;;30.75;;
41323;SDS011;27073;51.128;4.220;2023-04-29T01:25:16;36.83;;;29.67;;
41323;SDS011;27073;51.128;4.220;2023-04-29T01:28:04;35.03;;;28.80;;
41323;SDS011;27073;51.128;4.220;2023-04-29T01:38:33;33.03;;;28.88;;
41323;SDS011;27073;51.128;4.220;2023-04-29T01:42:02;29.42;;;25.73;;
41323;SDS011;27073;51.128;4.220;2023-04-29T01:44:14;26.85;;;23.27;;
41323;SDS011;27073;51.128;4.220;2023-04-29T01:46:43;30.23;;;23.98;;
41323;SDS011;27073;51.128;4.220;2023-04-29T01:49:20;26.30;;;23.17;;
41323;SDS011;27073;51.128;4.220;2023-04-29T01:51:48;32.08;;;24.02;;
41323;SDS011;27073;51.128;4.220;2023-04-29T01:54:14;29.75;;;24.52;;
41323;SDS011;27073;51.128;4.220;2023-04-29T01:56:41;28.40;;;23.52;;
41323;SDS011;27073;51.128;4.220;2023-04-29T01:59:25;27.90;;;23.98;;
41323;SDS011;27073;51.128;4.220;2023-04-29T02:02:07;32.80;;;25.45;;
41323;SDS011;27073;51.128;4.220;2023-04-29T02:04:39;34.05;;;25.38;;
41323;SDS011;27073;51.128;4.220;2023-04-29T02:07:05;33.85;;;24.83;;
41323;SDS011;27073;51.128;4.220;2023-04-29T02:09:31;31.30;;;24.08;;
41323;SDS011;27073;51.128;4.220;2023-04-29T02:12:04;31.50;;;24.92;;
41323;SDS011;27073;51.128;4.220;2023-04-29T02:14:31;28.95;;;24.23;;
41323;SDS011;27073;51.128;4.220;2023-04-29T02:16:58;28.10;;;23.48;;
41323;SDS011;27073;51.128;4.220;2023-04-29T02:19:24;29.13;;;22.75;;
41323;SDS011;27073;51.128;4.220;2023-04-29T02:21:53;29.70;;;24.17;;
41323;SDS011;27073;51.128;4.220;2023-04-29T02:24:19;34.10;;;25.30;;
41323;SDS011;27073;51.128;4.220;2023-04-29T02:26:46;36.75;;;26.65;;
41323;SDS011;27073;51.128;4.220;2023-04-29T02:29:12;34.70;;;26.58;;
41323;SDS011;27073;51.128;4.220;2023-04-29T02:31:38;40.95;;;27.83;;
41323;SDS011;27073;51.128;4.220;2023-04-29T02:34:04;40.40;;;29.35;;
41323;SDS011;27073;51.128;4.220;2023-04-29T02:36:32;38.10;;;30.23;;
41323;SDS011;27073;51.128;4.220;2023-04-29T02:38:58;42.15;;;28.27;;
41323;SDS011;27073;51.128;4.220;2023-04-29T02:41:24;37.15;;;28.58;;
41323;SDS011;27073;51.128;4.220;2023-04-29T02:43:50;42.55;;;29.27;;
41323;SDS011;27073;51.128;4.220;2023-04-29T02:46:16;35.42;;;29.63;;
41323;SDS011;27073;51.128;4.220;2023-04-29T02:48:43;45.72;;;31.17;;
41323;SDS011;27073;51.128;4.220;2023-04-29T02:51:09;35.95;;;29.08;;
41323;SDS011;27073;51.128;4.220;2023-04-29T02:53:35;32.92;;;29.38;;
41323;SDS011;27073;51.128;4.220;2023-04-29T02:56:01;45.40;;;28.67;;
41323;SDS011;27073;51.128;4.220;2023-04-29T02:58:26;40.38;;;30.35;;
41323;SDS011;27073;51.128;4.220;2023-04-29T03:00:53;39.90;;;30.20;;
41323;SDS011;27073;51.128;4.220;2023-04-29T03:03:18;41.90;;;30.30;;
41323;SDS011;27073;51.128;4.220;2023-04-29T03:05:44;38.50;;;30.60;;
41323;SDS011;27073;51.128;4.220;2023-04-29T03:08:10;40.65;;;30.27;;
41323;SDS011;27073;51.128;4.220;2023-04-29T03:10:36;37.95;;;30.30;;
41323;SDS011;27073;51.128;4.220;2023-04-29T03:13:01;42.80;;;30.08;;
41323;SDS011;27073;51.128;4.220;2023-04-29T03:15:29;38.83;;;31.40;;
41323;SDS011;27073;51.128;4.220;2023-04-29T03:17:56;39.35;;;30.73;;
41323;SDS011;27073;51.128;4.220;2023-04-29T03:20:23;37.45;;;30.92;;
41323;SDS011;27073;51.128;4.220;2023-04-29T03:22:49;37.60;;;28.95;;
41323;SDS011;27073;51.128;4.220;2023-04-29T03:25:15;35.42;;;29.58;;
41323;SDS011;27073;51.128;4.220;2023-04-29T03:27:41;36.22;;;28.92;;
41323;SDS011;27073;51.128;4.220;2023-04-29T03:30:08;33.08;;;27.83;;
41323;SDS011;27073;51.128;4.220;2023-04-29T03:32:39;33.22;;;27.42;;
41323;SDS011;27073;51.128;4.220;2023-04-29T03:35:05;32.60;;;27.02;;
41323;SDS011;27073;51.128;4.220;2023-04-29T03:37:36;37.92;;;27.13;;
41323;SDS011;27073;51.128;4.220;2023-04-29T03:40:21;30.95;;;24.55;;
41323;SDS011;27073;51.128;4.220;2023-04-29T03:42:48;37.42;;;26.48;;
41323;SDS011;27073;51.128;4.220;2023-04-29T03:45:14;33.42;;;26.48;;
41323;SDS011;27073;51.128;4.220;2023-04-29T03:47:40;27.55;;;23.50;;
41323;SDS011;27073;51.128;4.220;2023-04-29T03:50:06;30.02;;;22.55;;
41323;SDS011;27073;51.128;4.220;2023-04-29T03:52:33;29.52;;;21.92;;
41323;SDS011;27073;51.128;4.220;2023-04-29T03:55:07;27.65;;;21.13;;
41323;SDS011;27073;51.128;4.220;2023-04-29T03:57:33;27.55;;;20.75;;
41323;SDS011;27073;51.128;4.220;2023-04-29T03:59:59;27.38;;;20.33;;
41323;SDS011;27073;51.128;4.220;2023-04-29T04:02:25;26.30;;;20.73;;
41323;SDS011;27073;51.128;4.220;2023-04-29T04:04:51;24.98;;;20.50;;
41323;SDS011;27073;51.128;4.220;2023-04-29T04:07:19;27.00;;;20.52;;
41323;SDS011;27073;51.128;4.220;2023-04-29T04:10:03;24.40;;;19.75;;
41323;SDS011;27073;51.128;4.220;2023-04-29T04:12:30;25.33;;;19.08;;
41323;SDS011;27073;51.128;4.220;2023-04-29T04:14:57;27.52;;;21.63;;
41323;SDS011;27073;51.128;4.220;2023-04-29T04:17:23;22.45;;;19.15;;
41323;SDS011;27073;51.128;4.220;2023-04-29T04:19:49;28.67;;;19.90;;
41323;SDS011;27073;51.128;4.220;2023-04-29T04:22:15;26.40;;;18.80;;
41323;SDS011;27073;51.128;4.220;2023-04-29T04:24:50;26.08;;;18.63;;
41323;SDS011;27073;51.128;4.220;2023-04-29T04:27:19;22.60;;;18.23;;
41323;SDS011;27073;51.128;4.220;2023-04-29T04:29:46;27.98;;;19.17;;
41323;SDS011;27073;51.128;4.220;2023-04-29T04:32:15;24.80;;;19.60;;
41323;SDS011;27073;51.128;4.220;2023-04-29T04:34:42;24.02;;;19.88;;
41323;SDS011;27073;51.128;4.220;2023-04-29T04:37:08;28.25;;;19.65;;
41323;SDS011;27073;51.128;4.220;2023-04-29T04:39:35;27.05;;;20.15;;
41323;SDS011;27073;51.128;4.220;2023-04-29T04:42:02;25.63;;;18.83;;
41323;SDS011;27073;51.128;4.220;2023-04-29T04:44:30;24.42;;;19.23;;
41323;SDS011;27073;51.128;4.220;2023-04-29T04:47:01;25.73;;;17.50;;
41323;SDS011;27073;51.128;4.220;2023-04-29T04:49:38;23.80;;;18.33;;
41323;SDS011;27073;51.128;4.220;2023-04-29T04:52:05;24.40;;;17.92;;
41323;SDS011;27073;51.128;4.220;2023-04-29T04:54:31;21.52;;;18.50;;
41323;SDS011;27073;51.128;4.220;2023-04-29T04:57:07;22.60;;;18.17;;
41323;SDS011;27073;51.128;4.220;2023-04-29T04:59:33;29.90;;;19.52;;
41323;SDS011;27073;51.128;4.220;2023-04-29T05:01:59;24.55;;;18.83;;
41323;SDS011;27073;51.128;4.220;2023-04-29T05:04:25;24.55;;;19.10;;
41323;SDS011;27073;51.128;4.220;2023-04-29T05:06:50;28.88;;;17.33;;
41323;SDS011;27073;51.128;4.220;2023-04-29T05:09:19;23.17;;;17.55;;
41323;SDS011;27073;51.128;4.220;2023-04-29T05:11:45;23.88;;;18.20;;
41323;SDS011;27073;51.128;4.220;2023-04-29T05:14:14;22.70;;;17.85;;
41323;SDS011;27073;51.128;4.220;2023-04-29T05:16:40;23.52;;;18.50;;
41323;SDS011;27073;51.128;4.220;2023-04-29T05:19:07;21.10;;;18.02;;
41323;SDS011;27073;51.128;4.220;2023-04-29T05:21:37;25.92;;;17.95;;
41323;SDS011;27073;51.128;4.220;2023-04-29T05:24:03;25.08;;;18.88;;
41323;SDS011;27073;51.128;4.220;2023-04-29T05:26:30;23.55;;;19.20;;
41323;SDS011;27073;51.128;4.220;2023-04-29T05:28:58;26.30;;;20.42;;
41323;SDS011;27073;51.128;4.220;2023-04-29T05:31:26;25.83;;;20.50;;
41323;SDS011;27073;51.128;4.220;2023-04-29T05:33:53;29.65;;;21.20;;
41323;SDS011;27073;51.128;4.220;2023-04-29T05:36:19;27.92;;;21.58;;
41323;SDS011;27073;51.128;4.220;2023-04-29T05:38:45;28.30;;;20.95;;
41323;SDS011;27073;51.128;4.220;2023-04-29T05:41:13;24.25;;;20.92;;
41323;SDS011;27073;51.128;4.220;2023-04-29T05:43:41;26.45;;;20.85;;
41323;SDS011;27073;51.128;4.220;2023-04-29T05:46:07;27.17;;;21.40;;
41323;SDS011;27073;51.128;4.220;2023-04-29T05:48:33;26.25;;;21.85;;
41323;SDS011;27073;51.128;4.220;2023-04-29T05:50:58;26.63;;;22.92;;
41323;SDS011;27073;51.128;4.220;2023-04-29T05:53:25;28.77;;;22.70;;
41323;SDS011;27073;51.128;4.220;2023-04-29T05:55:51;25.50;;;21.65;;
41323;SDS011;27073;51.128;4.220;2023-04-29T05:58:19;31.42;;;24.67;;
41323;SDS011;27073;51.128;4.220;2023-04-29T06:00:45;26.80;;;22.75;;
41323;SDS011;27073;51.128;4.220;2023-04-29T06:03:18;27.75;;;22.17;;
41323;SDS011;27073;51.128;4.220;2023-04-29T06:05:44;26.70;;;21.80;;
41323;SDS011;27073;51.128;4.220;2023-04-29T06:08:16;27.67;;;22.13;;
41323;SDS011;27073;51.128;4.220;2023-04-29T06:10:44;34.08;;;22.15;;
41323;SDS011;27073;51.128;4.220;2023-04-29T06:13:11;28.52;;;22.00;;
41323;SDS011;27073;51.128;4.220;2023-04-29T06:15:37;28.42;;;21.33;;
41323;SDS011;27073;51.128;4.220;2023-04-29T06:18:03;31.52;;;21.92;;
41323;SDS011;27073;51.128;4.220;2023-04-29T06:20:29;31.30;;;22.80;;
41323;SDS011;27073;51.128;4.220;2023-04-29T06:22:54;29.88;;;21.15;;
41323;SDS011;27073;51.128;4.220;2023-04-29T06:25:20;28.65;;;22.35;;
41323;SDS011;27073;51.128;4.220;2023-04-29T06:27:48;26.75;;;21.67;;
41323;SDS011;27073;51.128;4.220;2023-04-29T06:30:16;28.73;;;21.73;;
41323;SDS011;27073;51.128;4.220;2023-04-29T06:32:42;24.50;;;21.58;;
41323;SDS011;27073;51.128;4.220;2023-04-29T06:35:08;36.90;;;23.15;;
41323;SDS011;27073;51.128;4.220;2023-04-29T06:38:04;27.17;;;22.38;;
41323;SDS011;27073;51.128;4.220;2023-04-29T06:40:54;27.92;;;21.88;;
41323;SDS011;27073;51.128;4.220;2023-04-29T06:44:00;26.00;;;21.20;;
41323;SDS011;27073;51.128;4.220;2023-04-29T06:46:35;27.88;;;21.65;;
41323;SDS011;27073;51.128;4.220;2023-04-29T06:49:06;28.88;;;22.83;;
41323;SDS011;27073;51.128;4.220;2023-04-29T06:51:31;26.40;;;21.27;;
41323;SDS011;27073;51.128;4.220;2023-04-29T06:53:58;33.30;;;22.42;;
41323;SDS011;27073;51.128;4.220;2023-04-29T06:56:24;26.63;;;20.98;;
41323;SDS011;27073;51.128;4.220;2023-04-29T06:58:50;24.85;;;22.10;;
41323;SDS011;27073;51.128;4.220;2023-04-29T07:01:15;25.50;;;21.52;;
41323;SDS011;27073;51.128;4.220;2023-04-29T07:03:41;27.02;;;22.08;;
41323;SDS011;27073;51.128;4.220;2023-04-29T07:06:07;27.45;;;22.25;;
41323;SDS011;27073;51.128;4.220;2023-04-29T07:08:33;31.65;;;23.15;;
41323;SDS011;27073;51.128;4.220;2023-04-29T07:10:59;25.33;;;22.02;;
41323;SDS011;27073;51.128;4.220;2023-04-29T07:13:24;29.55;;;23.00;;
41323;SDS011;27073;51.128;4.220;2023-04-29T07:15:50;29.58;;;21.98;;
41323;SDS011;27073;51.128;4.220;2023-04-29T07:18:16;26.60;;;21.40;;
41323;SDS011;27073;51.128;4.220;2023-04-29T07:20:42;29.27;;;21.38;;
41323;SDS011;27073;51.128;4.220;2023-04-29T07:23:08;25.35;;;21.52;;
41323;SDS011;27073;51.128;4.220;2023-04-29T07:25:34;25.10;;;21.08;;
41323;SDS011;27073;51.128;4.220;2023-04-29T07:28:00;26.25;;;20.73;;
41323;SDS011;27073;51.128;4.220;2023-04-29T07:30:26;27.15;;;20.27;;
41323;SDS011;27073;51.128;4.220;2023-04-29T07:32:52;29.20;;;21.23;;
41323;SDS011;27073;51.128;4.220;2023-04-29T07:35:18;30.25;;;20.48;;
41323;SDS011;27073;51.128;4.220;2023-04-29T07:37:44;26.23;;;20.63;;
41323;SDS011;27073;51.128;4.220;2023-04-29T07:40:10;27.30;;;19.95;;
41323;SDS011;27073;51.128;4.220;2023-04-29T07:42:37;27.30;;;19.55;;
41323;SDS011;27073;51.128;4.220;2023-04-29T07:45:04;21.63;;;18.65;;
41323;SDS011;27073;51.128;4.220;2023-04-29T07:47:31;21.08;;;18.65;;
41323;SDS011;27073;51.128;4.220;2023-04-29T07:49:57;24.92;;;19.02;;
41323;SDS011;27073;51.128;4.220;2023-04-29T07:52:23;23.45;;;18.05;;
41323;SDS011;27073;51.128;4.220;2023-04-29T07:54:49;22.35;;;17.27;;
41323;SDS011;27073;51.128;4.220;2023-04-29T07:57:15;23.10;;;18.17;;
41323;SDS011;27073;51.128;4.220;2023-04-29T07:59:40;22.73;;;17.05;;
41323;SDS011;27073;51.128;4.220;2023-04-29T08:02:07;21.60;;;17.13;;
41323;SDS011;27073;51.128;4.220;2023-04-29T08:04:32;24.15;;;15.93;;
41323;SDS011;27073;51.128;4.220;2023-04-29T08:07:06;21.33;;;17.20;;
41323;SDS011;27073;51.128;4.220;2023-04-29T08:09:34;21.23;;;16.90;;
41323;SDS011;27073;51.128;4.220;2023-04-29T08:12:01;21.63;;;17.42;;
41323;SDS011;27073;51.128;4.220;2023-04-29T08:14:27;20.05;;;16.38;;
41323;SDS011;27073;51.128;4.220;2023-04-29T08:16:53;23.05;;;17.45;;
41323;SDS011;27073;51.128;4.220;2023-04-29T08:19:19;24.35;;;16.45;;
41323;SDS011;27073;51.128;4.220;2023-04-29T08:21:46;22.13;;;17.70;;
41323;SDS011;27073;51.128;4.220;2023-04-29T08:24:12;21.83;;;17.10;;
41323;SDS011;27073;51.128;4.220;2023-04-29T08:26:41;23.45;;;17.50;;
41323;SDS011;27073;51.128;4.220;2023-04-29T08:29:07;20.90;;;17.08;;
41323;SDS011;27073;51.128;4.220;2023-04-29T08:31:33;21.42;;;16.77;;
41323;SDS011;27073;51.128;4.220;2023-04-29T08:33:59;24.48;;;18.00;;
41323;SDS011;27073;51.128;4.220;2023-04-29T08:36:25;21.98;;;17.73;;
41323;SDS011;27073;51.128;4.220;2023-04-29T08:38:54;21.92;;;17.13;;
41323;SDS011;27073;51.128;4.220;2023-04-29T08:41:20;23.77;;;17.00;;
41323;SDS011;27073;51.128;4.220;2023-04-29T08:43:46;22.40;;;17.08;;
41323;SDS011;27073;51.128;4.220;2023-04-29T08:46:12;22.88;;;16.98;;
41323;SDS011;27073;51.128;4.220;2023-04-29T08:48:38;21.73;;;16.73;;
41323;SDS011;27073;51.128;4.220;2023-04-29T08:51:05;18.98;;;16.98;;
41323;SDS011;27073;51.128;4.220;2023-04-29T08:53:31;19.80;;;16.58;;
41323;SDS011;27073;51.128;4.220;2023-04-29T08:55:58;19.33;;;16.25;;
41323;SDS011;27073;51.128;4.220;2023-04-29T08:58:27;18.90;;;15.88;;
41323;SDS011;27073;51.128;4.220;2023-04-29T09:03:32;20.27;;;15.95;;
41323;SDS011;27073;51.128;4.220;2023-04-29T09:06:04;18.02;;;15.57;;
41323;SDS011;27073;51.128;4.220;2023-04-29T09:08:31;21.55;;;16.25;;
41323;SDS011;27073;51.128;4.220;2023-04-29T09:10:57;22.30;;;16.15;;
41323;SDS011;27073;51.128;4.220;2023-04-29T09:13:26;23.10;;;17.02;;
41323;SDS011;27073;51.128;4.220;2023-04-29T09:21:26;19.25;;;15.43;;
41323;SDS011;27073;51.128;4.220;2023-04-29T09:23:55;17.20;;;15.27;;
41323;SDS011;27073;51.128;4.220;2023-04-29T09:26:22;16.90;;;15.02;;
41323;SDS011;27073;51.128;4.220;2023-04-29T09:31:36;14.77;;;13.20;;
41323;SDS011;27073;51.128;4.220;2023-04-29T09:34:03;18.45;;;14.98;;
41323;SDS011;27073;51.128;4.220;2023-04-29T09:39:12;18.13;;;14.85;;
41323;SDS011;27073;51.128;4.220;2023-04-29T09:44:16;16.65;;;13.75;;
41323;SDS011;27073;51.128;4.220;2023-04-29T09:46:53;16.73;;;15.02;;
41323;SDS011;27073;51.128;4.220;2023-04-29T09:49:33;16.75;;;13.82;;
41323;SDS011;27073;51.128;4.220;2023-04-29T09:52:05;16.05;;;13.93;;
41323;SDS011;27073;51.128;4.220;2023-04-29T09:54:33;18.42;;;14.23;;
41323;SDS011;27073;51.128;4.220;2023-04-29T09:57:01;16.88;;;13.52;;
41323;SDS011;27073;51.128;4.220;2023-04-29T09:59:30;15.65;;;13.43;;
41323;SDS011;27073;51.128;4.220;2023-04-29T10:02:00;21.67;;;14.80;;
41323;SDS011;27073;51.128;4.220;2023-04-29T10:04:31;15.55;;;13.77;;
41323;SDS011;27073;51.128;4.220;2023-04-29T10:07:00;18.50;;;14.85;;
41323;SDS011;27073;51.128;4.220;2023-04-29T10:09:26;15.63;;;14.13;;
41323;SDS011;27073;51.128;4.220;2023-04-29T10:11:53;16.40;;;13.10;;
41323;SDS011;27073;51.128;4.220;2023-04-29T10:14:20;16.85;;;15.18;;
41323;SDS011;27073;51.128;4.220;2023-04-29T10:16:47;17.17;;;13.88;;
41323;SDS011;27073;51.128;4.220;2023-04-29T10:19:23;17.48;;;15.35;;
41323;SDS011;27073;51.128;4.220;2023-04-29T10:21:52;16.35;;;14.48;;
41323;SDS011;27073;51.128;4.220;2023-04-29T10:24:19;17.48;;;14.82;;
41323;SDS011;27073;51.128;4.220;2023-04-29T10:26:46;15.32;;;13.68;;
41323;SDS011;27073;51.128;4.220;2023-04-29T10:29:16;16.17;;;14.45;;
41323;SDS011;27073;51.128;4.220;2023-04-29T10:31:43;15.60;;;13.63;;
41323;SDS011;27073;51.128;4.220;2023-04-29T10:34:09;18.08;;;13.55;;
41323;SDS011;27073;51.128;4.220;2023-04-29T10:36:37;16.48;;;14.23;;
41323;SDS011;27073;51.128;4.220;2023-04-29T10:39:03;15.63;;;13.45;;
41323;SDS011;27073;51.128;4.220;2023-04-29T10:41:35;17.80;;;14.00;;
41323;SDS011;27073;51.128;4.220;2023-04-29T10:44:06;14.68;;;13.15;;
41323;SDS011;27073;51.128;4.220;2023-04-29T10:46:32;15.88;;;12.90;;
41323;SDS011;27073;51.128;4.220;2023-04-29T10:54:21;16.98;;;13.07;;
41323;SDS011;27073;51.128;4.220;2023-04-29T10:56:50;17.15;;;14.23;;
41323;SDS011;27073;51.128;4.220;2023-04-29T10:59:21;16.42;;;14.48;;
41323;SDS011;27073;51.128;4.220;2023-04-29T11:02:08;15.02;;;13.52;;
41323;SDS011;27073;51.128;4.220;2023-04-29T11:04:55;15.65;;;13.63;;
41323;SDS011;27073;51.128;4.220;2023-04-29T11:07:34;17.23;;;13.73;;
41323;SDS011;27073;51.128;4.220;2023-04-29T11:10:00;17.27;;;14.73;;
41323;SDS011;27073;51.128;4.220;2023-04-29T11:12:27;15.88;;;14.10;;
41323;SDS011;27073;51.128;4.220;2023-04-29T11:14:53;16.92;;;14.20;;
41323;SDS011;27073;51.128;4.220;2023-04-29T11:17:27;14.52;;;12.57;;
41323;SDS011;27073;51.128;4.220;2023-04-29T11:20:00;13.98;;;12.48;;
41323;SDS011;27073;51.128;4.220;2023-04-29T11:22:26;16.52;;;14.02;;
41323;SDS011;27073;51.128;4.220;2023-04-29T11:24:58;16.85;;;13.60;;
41323;SDS011;27073;51.128;4.220;2023-04-29T11:27:29;13.93;;;12.05;;
41323;SDS011;27073;51.128;4.220;2023-04-29T11:29:56;16.38;;;12.38;;
41323;SDS011;27073;51.128;4.220;2023-04-29T11:32:23;14.40;;;11.73;;
41323;SDS011;27073;51.128;4.220;2023-04-29T11:34:50;14.98;;;12.68;;
41323;SDS011;27073;51.128;4.220;2023-04-29T11:37:20;14.88;;;12.27;;
41323;SDS011;27073;51.128;4.220;2023-04-29T11:39:48;17.52;;;12.32;;
41323;SDS011;27073;51.128;4.220;2023-04-29T11:42:17;15.65;;;12.02;;
41323;SDS011;27073;51.128;4.220;2023-04-29T11:44:44;13.57;;;11.48;;
41323;SDS011;27073;51.128;4.220;2023-04-29T11:47:10;15.88;;;11.15;;
41323;SDS011;27073;51.128;4.220;2023-04-29T11:49:36;12.77;;;11.48;;
41323;SDS011;27073;51.128;4.220;2023-04-29T11:52:02;13.70;;;10.93;;
41323;SDS011;27073;51.128;4.220;2023-04-29T11:54:28;14.63;;;11.05;;
41323;SDS011;27073;51.128;4.220;2023-04-29T11:56:55;15.18;;;10.55;;
41323;SDS011;27073;51.128;4.220;2023-04-29T11:59:22;14.88;;;10.43;;
41323;SDS011;27073;51.128;4.220;2023-04-29T12:01:49;14.25;;;10.98;;
41323;SDS011;27073;51.128;4.220;2023-04-29T12:04:15;14.60;;;11.52;;
41323;SDS011;27073;51.128;4.220;2023-04-29T12:06:41;14.48;;;11.77;;
41323;SDS011;27073;51.128;4.220;2023-04-29T12:09:07;13.40;;;11.15;;
41323;SDS011;27073;51.128;4.220;2023-04-29T12:11:34;13.30;;;10.48;;
41323;SDS011;27073;51.128;4.220;2023-04-29T12:14:01;12.23;;;10.07;;
41323;SDS011;27073;51.128;4.220;2023-04-29T12:16:30;11.63;;;10.20;;
41323;SDS011;27073;51.128;4.220;2023-04-29T12:18:57;11.70;;;10.38;;
41323;SDS011;27073;51.128;4.220;2023-04-29T12:21:23;11.15;;;8.88;;
41323;SDS011;27073;51.128;4.220;2023-04-29T12:23:50;12.82;;;8.65;;
41323;SDS011;27073;51.128;4.220;2023-04-29T12:26:17;11.10;;;9.05;;
41323;SDS011;27073;51.128;4.220;2023-04-29T12:28:45;11.90;;;9.30;;
41323;SDS011;27073;51.128;4.220;2023-04-29T12:31:17;10.57;;;8.38;;
41323;SDS011;27073;51.128;4.220;2023-04-29T12:33:43;10.55;;;8.50;;
41323;SDS011;27073;51.128;4.220;2023-04-29T12:36:16;10.63;;;8.82;;
41323;SDS011;27073;51.128;4.220;2023-04-29T12:38:46;10.88;;;8.63;;
41323;SDS011;27073;51.128;4.220;2023-04-29T12:41:13;11.52;;;8.57;;
41323;SDS011;27073;51.128;4.220;2023-04-29T12:43:41;11.18;;;9.05;;
41323;SDS011;27073;51.128;4.220;2023-04-29T12:46:07;9.98;;;8.55;;
41323;SDS011;27073;51.128;4.220;2023-04-29T12:48:35;11.23;;;9.07;;
41323;SDS011;27073;51.128;4.220;2023-04-29T12:51:10;10.30;;;8.63;;
41323;SDS011;27073;51.128;4.220;2023-04-29T12:53:37;9.25;;;8.35;;
41323;SDS011;27073;51.128;4.220;2023-04-29T12:56:03;9.75;;;8.23;;
41323;SDS011;27073;51.128;4.220;2023-04-29T12:58:30;10.32;;;7.78;;
41323;SDS011;27073;51.128;4.220;2023-04-29T13:00:57;9.73;;;8.18;;
41323;SDS011;27073;51.128;4.220;2023-04-29T13:03:23;11.05;;;8.70;;
41323;SDS011;27073;51.128;4.220;2023-04-29T13:05:49;9.57;;;8.18;;
41323;SDS011;27073;51.128;4.220;2023-04-29T13:08:17;9.18;;;8.13;;
41323;SDS011;27073;51.128;4.220;2023-04-29T13:10:43;11.93;;;7.90;;
41323;SDS011;27073;51.128;4.220;2023-04-29T13:13:09;12.80;;;7.90;;
41323;SDS011;27073;51.128;4.220;2023-04-29T13:15:36;9.25;;;7.72;;
41323;SDS011;27073;51.128;4.220;2023-04-29T13:18:03;11.50;;;8.77;;
41323;SDS011;27073;51.128;4.220;2023-04-29T13:20:29;11.45;;;9.57;;
41323;SDS011;27073;51.128;4.220;2023-04-29T13:22:56;9.95;;;8.35;;
41323;SDS011;27073;51.128;4.220;2023-04-29T13:25:22;9.98;;;8.35;;
41323;SDS011;27073;51.128;4.220;2023-04-29T13:27:48;9.05;;;7.35;;
41323;SDS011;27073;51.128;4.220;2023-04-29T13:30:13;10.85;;;8.13;;
41323;SDS011;27073;51.128;4.220;2023-04-29T13:32:40;9.13;;;7.47;;
41323;SDS011;27073;51.128;4.220;2023-04-29T13:35:06;10.63;;;8.75;;
41323;SDS011;27073;51.128;4.220;2023-04-29T13:37:32;9.82;;;8.23;;
41323;SDS011;27073;51.128;4.220;2023-04-29T13:39:58;9.60;;;8.60;;
41323;SDS011;27073;51.128;4.220;2023-04-29T13:42:24;10.55;;;8.15;;
41323;SDS011;27073;51.128;4.220;2023-04-29T13:44:50;9.75;;;8.70;;
41323;SDS011;27073;51.128;4.220;2023-04-29T13:47:17;8.63;;;7.82;;
41323;SDS011;27073;51.128;4.220;2023-04-29T13:49:43;9.50;;;8.57;;
41323;SDS011;27073;51.128;4.220;2023-04-29T13:52:10;9.15;;;8.23;;
41323;SDS011;27073;51.128;4.220;2023-04-29T13:54:36;10.00;;;7.63;;
41323;SDS011;27073;51.128;4.220;2023-04-29T13:57:02;7.25;;;6.55;;
41323;SDS011;27073;51.128;4.220;2023-04-29T13:59:31;9.15;;;7.72;;
41323;SDS011;27073;51.128;4.220;2023-04-29T14:01:57;9.65;;;7.70;;
41323;SDS011;27073;51.128;4.220;2023-04-29T14:04:24;8.63;;;7.72;;
41323;SDS011;27073;51.128;4.220;2023-04-29T14:06:51;11.88;;;8.23;;
41323;SDS011;27073;51.128;4.220;2023-04-29T14:09:17;9.00;;;8.10;;
41323;SDS011;27073;51.128;4.220;2023-04-29T14:11:44;10.77;;;9.52;;
41323;SDS011;27073;51.128;4.220;2023-04-29T14:14:10;13.77;;;10.38;;
41323;SDS011;27073;51.128;4.220;2023-04-29T14:16:36;11.38;;;10.20;;
41323;SDS011;27073;51.128;4.220;2023-04-29T14:19:02;12.43;;;9.82;;
41323;SDS011;27073;51.128;4.220;2023-04-29T14:21:28;12.10;;;8.88;;
41323;SDS011;27073;51.128;4.220;2023-04-29T14:23:55;12.32;;;9.32;;
41323;SDS011;27073;51.128;4.220;2023-04-29T14:26:21;10.05;;;8.38;;
41323;SDS011;27073;51.128;4.220;2023-04-29T14:28:48;10.30;;;9.00;;
41323;SDS011;27073;51.128;4.220;2023-04-29T14:31:21;10.85;;;9.48;;
41323;SDS011;27073;51.128;4.220;2023-04-29T14:33:48;14.25;;;10.43;;
41323;SDS011;27073;51.128;4.220;2023-04-29T14:36:15;11.05;;;9.63;;
41323;SDS011;27073;51.128;4.220;2023-04-29T14:38:41;12.38;;;10.18;;
41323;SDS011;27073;51.128;4.220;2023-04-29T14:41:06;11.38;;;9.15;;
41323;SDS011;27073;51.128;4.220;2023-04-29T14:43:32;11.05;;;9.65;;
41323;SDS011;27073;51.128;4.220;2023-04-29T14:45:59;10.20;;;9.10;;
41323;SDS011;27073;51.128;4.220;2023-04-29T14:48:25;9.70;;;8.57;;
41323;SDS011;27073;51.128;4.220;2023-04-29T14:50:50;9.77;;;8.55;;
41323;SDS011;27073;51.128;4.220;2023-04-29T14:53:16;15.60;;;12.52;;
41323;SDS011;27073;51.128;4.220;2023-04-29T14:55:42;13.38;;;10.40;;
41323;SDS011;27073;51.128;4.220;2023-04-29T14:58:08;11.55;;;8.85;;
41323;SDS011;27073;51.128;4.220;2023-04-29T15:00:34;9.50;;;8.60;;
41323;SDS011;27073;51.128;4.220;2023-04-29T15:03:00;9.60;;;8.70;;
41323;SDS011;27073;51.128;4.220;2023-04-29T15:05:26;9.88;;;8.88;;